Terminal Aerodrome Forecast
Issued by NWS Blacksburg, VA

Current Version | Previous Version | Text Only | Print | Product List | Glossary Off
Versions: 1 2 3 4 5 6 7 8 9 10 11 12 13 14 15 16 17 18 19 20 21 22 23 24 25 26 27 28 29 30 31 32 33 34 35 36 37 38 39 40 41 42 43 44 45 46

000
FTUS41 KRNK 292334
TAFBLF
TAF
KBLF 292334Z 3000/3024 30007KT P6SM BKN040 BKN060
     FM300400 29006KT P6SM BKN035
     FM300900 27005KT P6SM SCT015 BKN025
      TEMPO 3010/3013 BKN015
     FM301500 27007KT P6SM SCT025 BKN035
     FM301700 28008KT P6SM VCSH BKN035 BKN050=

USA.gov is the U.S. government's official web portal to all federal, state and local government web resources and services.